createdAt,value
2018-09-11T00:02:56.793Z,15.61
2018-09-11T00:06:00.838Z,15.58
2018-09-11T00:09:09.425Z,15.59
2018-09-11T00:12:13.410Z,15.57
2018-09-11T00:15:17.935Z,15.55
2018-09-11T00:18:22.224Z,15.54
2018-09-11T00:21:26.963Z,15.53
2018-09-11T00:24:31.028Z,15.53
2018-09-11T00:27:40.634Z,15.52
2018-09-11T00:30:45.284Z,15.51
2018-09-11T00:33:49.587Z,15.48
2018-09-11T00:36:53.605Z,15.48
2018-09-11T00:39:58.014Z,15.46
2018-09-11T00:43:02.774Z,15.44
2018-09-11T00:46:07.144Z,15.42
2018-09-11T00:49:11.151Z,15.39
2018-09-11T00:52:15.114Z,15.38
2018-09-11T00:55:19.362Z,15.39
2018-09-11T00:58:23.766Z,15.38
2018-09-11T01:01:28.551Z,15.37
2018-09-11T01:04:32.529Z,15.38
2018-09-11T01:07:36.826Z,15.38
2018-09-11T01:10:41.614Z,15.38
2018-09-11T01:13:45.905Z,15.34
2018-09-11T01:16:50.035Z,15.34
2018-09-11T01:19:54.205Z,15.35
2018-09-11T01:22:58.314Z,15.33
2018-09-11T01:26:02.625Z,15.34
2018-09-11T01:29:06.629Z,15.33
2018-09-11T01:32:10.590Z,15.33
2018-09-11T01:35:14.522Z,15.32
2018-09-11T01:38:18.520Z,15.35
2018-09-11T01:41:22.767Z,15.36
2018-09-11T01:44:26.765Z,15.34
2018-09-11T01:47:33.791Z,15.33
2018-09-11T01:50:37.777Z,15.33
2018-09-11T01:53:41.845Z,15.35
2018-09-11T01:56:45.811Z,15.35
2018-09-11T01:59:50.007Z,15.37
2018-09-11T02:02:53.963Z,15.39
2018-09-11T02:05:58.042Z,15.40
2018-09-11T02:09:02.699Z,15.39
2018-09-11T02:12:07.476Z,15.40
2018-09-11T02:15:11.976Z,15.42
2018-09-11T02:18:15.981Z,15.40
2018-09-11T02:21:19.963Z,15.37
2018-09-11T02:24:24.694Z,15.38
2018-09-11T02:27:28.665Z,15.39
2018-09-11T02:30:32.878Z,15.35
2018-09-11T02:33:36.886Z,15.36
2018-09-11T02:36:41.626Z,15.39
2018-09-11T02:39:45.921Z,15.37
2018-09-11T02:42:49.928Z,15.37
2018-09-11T02:45:54.035Z,15.39
2018-09-11T02:48:57.981Z,15.40
2018-09-11T02:52:02.467Z,15.38
2018-09-11T02:55:07.157Z,15.41
2018-09-11T02:58:11.279Z,15.42
2018-09-11T03:01:15.790Z,15.44
2018-09-11T03:04:20.306Z,15.45
2018-09-11T03:07:24.448Z,15.47
2018-09-11T03:10:30.504Z,15.48
2018-09-11T03:13:34.507Z,15.49
2018-09-11T03:16:39.645Z,15.50
2018-09-11T03:19:43.596Z,15.47
2018-09-11T03:22:48.061Z,15.50
2018-09-11T03:25:52.446Z,15.48
2018-09-11T03:28:57.476Z,15.46
2018-09-11T03:32:02.357Z,15.45
2018-09-11T03:35:06.525Z,15.40
2018-09-11T03:38:11.074Z,15.40
2018-09-11T03:41:15.456Z,15.38
2018-09-11T03:44:19.537Z,15.40
2018-09-11T03:47:23.995Z,15.38
2018-09-11T03:50:28.183Z,15.36
2018-09-11T03:53:32.216Z,15.36
2018-09-11T03:56:36.163Z,15.38
2018-09-11T03:59:40.386Z,15.36
2018-09-11T04:02:45.178Z,15.35
2018-09-11T04:05:49.596Z,15.34
2018-09-11T04:08:53.906Z,15.35
2018-09-11T04:11:58.408Z,15.33
2018-09-11T04:15:02.458Z,15.34
2018-09-11T04:18:06.456Z,15.35
2018-09-11T04:21:10.590Z,15.33
2018-09-11T04:24:14.926Z,15.33
2018-09-11T04:27:20.990Z,15.30
2018-09-11T04:30:25.226Z,15.32
2018-09-11T04:33:29.629Z,15.29
2018-09-11T04:36:33.882Z,15.30
2018-09-11T04:39:38.186Z,15.31
2018-09-11T04:42:42.175Z,15.30
2018-09-11T04:45:46.176Z,15.30
2018-09-11T04:48:50.176Z,15.31
2018-09-11T04:51:54.716Z,15.33
2018-09-11T04:54:58.716Z,15.32
2018-09-11T04:58:02.758Z,15.32
2018-09-11T05:01:07.007Z,15.30
2018-09-11T05:04:11.526Z,15.32
2018-09-11T05:07:15.454Z,15.31
2018-09-11T05:10:19.693Z,15.31
2018-09-11T05:13:24.168Z,15.34
2018-09-11T05:16:28.317Z,15.37
2018-09-11T05:19:32.257Z,15.36
2018-09-11T05:22:36.261Z,15.38
2018-09-11T05:25:40.588Z,15.36
2018-09-11T05:28:45.264Z,15.35
2018-09-11T05:31:49.657Z,15.38
2018-09-11T05:34:54.305Z,15.37
2018-09-11T05:37:59.098Z,15.38
2018-09-11T05:41:03.040Z,15.37
2018-09-11T05:44:07.563Z,15.38
2018-09-11T05:47:11.747Z,15.39
2018-09-11T05:50:16.274Z,15.44
2018-09-11T05:53:20.238Z,15.47
2018-09-11T05:56:24.217Z,15.47
2018-09-11T05:59:28.149Z,15.50
2018-09-11T06:02:32.295Z,15.51
2018-09-11T06:05:36.437Z,15.53
2018-09-11T06:08:40.414Z,15.56
2018-09-11T06:11:44.369Z,15.57
2018-09-11T06:14:48.427Z,15.58
2018-09-11T06:17:52.496Z,15.60
2018-09-11T06:20:56.430Z,15.61
2018-09-11T06:24:00.511Z,15.64
2018-09-11T06:27:04.555Z,15.65
2018-09-11T06:30:08.506Z,15.67
2018-09-11T06:33:12.504Z,15.71
2018-09-11T06:36:16.470Z,15.73
2018-09-11T06:39:20.453Z,15.75
2018-09-11T06:42:24.783Z,15.78
2018-09-11T06:45:28.995Z,15.79
2018-09-11T06:48:33.055Z,15.81
2018-09-11T06:51:37.413Z,15.83
2018-09-11T06:54:41.458Z,15.86
2018-09-11T06:57:45.994Z,15.87
2018-09-11T07:00:50.135Z,15.91
2018-09-11T07:03:54.352Z,15.93
2018-09-11T07:06:58.311Z,15.96
2018-09-11T07:10:02.605Z,16.00
2018-09-11T07:13:07.353Z,16.03
2018-09-11T07:16:11.489Z,16.06
2018-09-11T07:19:15.564Z,16.10
2018-09-11T07:22:19.599Z,16.14
2018-09-11T07:25:24.287Z,16.16
2018-09-11T07:28:28.299Z,16.21
2018-09-11T07:31:32.266Z,16.23
2018-09-11T07:34:36.256Z,16.25
2018-09-11T07:37:40.801Z,16.27
2018-09-11T07:40:45.183Z,16.31
2018-09-11T07:43:49.276Z,16.35
2018-09-11T07:46:53.276Z,16.37
2018-09-11T07:49:57.372Z,16.40
2018-09-11T07:53:01.637Z,16.44
2018-09-11T07:56:06.005Z,16.47
2018-09-11T07:59:10.081Z,16.50
2018-09-11T08:02:14.555Z,16.52
2018-09-11T08:05:18.711Z,16.55
2018-09-11T08:08:22.977Z,16.59
2018-09-11T08:11:27.648Z,16.60
2018-09-11T08:14:31.716Z,16.65
2018-09-11T08:17:35.890Z,16.68
2018-09-11T08:20:40.034Z,16.73
2018-09-11T08:23:44.097Z,16.78
2018-09-11T08:26:48.306Z,16.83
2018-09-11T08:29:52.453Z,16.87
2018-09-11T08:32:57.002Z,16.92
2018-09-11T08:36:01.035Z,16.98
2018-09-11T08:39:08.042Z,17.03
2018-09-11T08:42:12.014Z,17.10
2018-09-11T08:45:15.976Z,17.17
2018-09-11T08:48:19.937Z,17.21
2018-09-11T08:51:23.874Z,17.27
2018-09-11T08:54:28.121Z,17.33
2018-09-11T08:57:33.617Z,17.38
2018-09-11T09:00:37.579Z,17.45
2018-09-11T09:03:41.587Z,17.51
2018-09-11T09:06:46.023Z,17.58
2018-09-11T09:09:49.921Z,17.64
2018-09-11T09:12:53.935Z,17.68
2018-09-11T09:15:57.874Z,17.75
2018-09-11T09:19:01.880Z,17.81
2018-09-11T09:22:06.019Z,17.86
2018-09-11T09:25:10.382Z,17.89
2018-09-11T09:28:14.427Z,17.95
2018-09-11T09:31:19.387Z,17.99
2018-09-11T09:34:23.336Z,18.06
2018-09-11T09:37:27.408Z,18.07
2018-09-11T09:40:31.389Z,18.11
2018-09-11T09:43:35.546Z,18.16
2018-09-11T09:46:40.026Z,18.20
2018-09-11T09:49:44.085Z,18.24
2018-09-11T09:52:48.173Z,18.28
2018-09-11T09:55:52.459Z,18.33
2018-09-11T09:58:56.487Z,18.38
2018-09-11T10:02:09.576Z,18.44
2018-09-11T10:05:13.584Z,18.48
2018-09-11T10:08:17.876Z,18.54
2018-09-11T10:11:21.906Z,18.61
2018-09-11T10:14:25.995Z,18.66
2018-09-11T10:17:30.383Z,18.71
2018-09-11T10:20:34.514Z,18.72
2018-09-11T10:23:38.964Z,18.77
2018-09-11T10:26:43.243Z,18.80
2018-09-11T10:29:47.316Z,18.82
2018-09-11T10:32:51.395Z,18.82
2018-09-11T10:35:55.738Z,18.85
2018-09-11T10:38:59.739Z,18.88
2018-09-11T10:42:04.336Z,18.89
2018-09-11T10:45:08.656Z,18.91
2018-09-11T10:48:12.956Z,18.94
2018-09-11T10:51:17.406Z,18.96
2018-09-11T10:54:21.897Z,18.97
2018-09-11T10:57:26.050Z,18.98
2018-09-11T11:00:30.827Z,19.00
2018-09-11T11:03:34.951Z,19.02
2018-09-11T11:06:39.756Z,19.04
2018-09-11T11:09:43.787Z,19.05
2018-09-11T11:12:47.782Z,19.06
2018-09-11T11:15:52.176Z,19.08
2018-09-11T11:18:56.448Z,19.10
2018-09-11T11:22:00.436Z,19.12
2018-09-11T11:25:05.207Z,19.14
2018-09-11T11:28:09.513Z,19.15
2018-09-11T11:31:13.687Z,19.18
2018-09-11T11:34:17.706Z,19.19
2018-09-11T11:37:21.899Z,19.21
2018-09-11T11:40:25.936Z,19.22
2018-09-11T11:43:29.947Z,19.23
2018-09-11T11:46:33.946Z,19.26
2018-09-11T11:49:38.157Z,19.27
2018-09-11T11:52:42.189Z,19.29
2018-09-11T11:55:46.266Z,19.33
2018-09-11T11:58:50.336Z,19.33
2018-09-11T12:01:54.431Z,19.35
2018-09-11T12:04:58.607Z,19.36
2018-09-11T12:08:02.665Z,19.39
2018-09-11T12:11:06.911Z,19.41
2018-09-11T12:14:10.939Z,19.42
2018-09-11T12:17:14.935Z,19.45
2018-09-11T12:20:18.944Z,19.47
2018-09-11T12:23:23.630Z,19.48
2018-09-11T12:26:28.096Z,19.52
2018-09-11T12:29:32.158Z,19.53
2018-09-11T12:32:36.466Z,19.55
2018-09-11T12:35:40.798Z,19.59
2018-09-11T12:38:45.550Z,19.61
2018-09-11T12:41:49.535Z,19.62
2018-09-11T12:44:54.440Z,19.64
2018-09-11T12:47:59.267Z,19.68
2018-09-11T12:51:03.317Z,19.70
2018-09-11T12:54:07.583Z,19.74
2018-09-11T12:57:11.663Z,19.76
2018-09-11T13:00:15.666Z,19.77
2018-09-11T13:03:19.809Z,19.81
2018-09-11T13:06:24.179Z,19.82
2018-09-11T13:09:28.680Z,19.85
2018-09-11T13:12:32.880Z,19.87
2018-09-11T13:15:36.899Z,19.89
2018-09-11T13:18:40.845Z,19.91
2018-09-11T13:21:45.168Z,19.95
2018-09-11T13:24:49.092Z,19.97
2018-09-11T13:27:53.255Z,19.98
2018-09-11T13:30:57.206Z,20.01
2018-09-11T13:34:01.850Z,20.02
2018-09-11T13:37:05.858Z,20.05
2018-09-11T13:40:09.799Z,20.07
2018-09-11T13:43:13.788Z,20.10
2018-09-11T13:46:17.840Z,20.11
2018-09-11T13:49:22.008Z,20.13
2018-09-11T13:52:26.046Z,20.14
2018-09-11T13:55:30.018Z,20.13
2018-09-11T13:58:34.222Z,20.14
2018-09-11T14:01:38.542Z,20.14
2018-09-11T14:04:42.478Z,20.14
2018-09-11T14:07:46.422Z,20.13
2018-09-11T14:10:50.373Z,20.12
2018-09-11T14:13:54.411Z,20.12
2018-09-11T14:16:58.384Z,20.10
2018-09-11T14:20:02.314Z,20.11
2018-09-11T14:23:06.245Z,20.11
2018-09-11T14:26:10.386Z,20.11
2018-09-11T14:29:14.335Z,20.10
2018-09-11T14:32:18.275Z,20.10
2018-09-11T14:35:22.226Z,20.08
2018-09-11T14:38:26.204Z,20.06
2018-09-11T14:41:30.515Z,20.05
2018-09-11T14:44:34.687Z,20.01
2018-09-11T14:47:44.540Z,20.00
2018-09-11T14:50:48.566Z,19.97
2018-09-11T14:53:52.489Z,19.96
2018-09-11T14:56:56.474Z,19.95
2018-09-11T15:00:00.784Z,19.92
2018-09-11T15:03:04.775Z,19.91
2018-09-11T15:06:08.727Z,19.89
2018-09-11T15:09:12.791Z,19.87
2018-09-11T15:12:16.874Z,19.86
2018-09-11T15:15:21.031Z,19.85
2018-09-11T15:18:24.974Z,19.82
2018-09-11T15:21:28.942Z,19.79
2018-09-11T15:24:32.884Z,19.77
2018-09-11T15:27:36.827Z,19.75
2018-09-11T15:30:40.742Z,19.75
2018-09-11T15:33:44.646Z,19.71
2018-09-11T15:36:48.578Z,19.70
2018-09-11T15:39:57.266Z,19.68
2018-09-11T15:43:01.174Z,19.66
2018-09-11T15:46:05.126Z,19.64
2018-09-11T15:49:09.146Z,19.63
2018-09-11T15:52:13.440Z,19.62
2018-09-11T15:55:17.363Z,19.60
2018-09-11T15:58:21.511Z,19.58
2018-09-11T16:01:26.194Z,19.56
2018-09-11T16:04:30.128Z,19.55
2018-09-11T16:07:34.067Z,19.52
2018-09-11T16:10:38.027Z,19.52
2018-09-11T16:13:41.971Z,19.51
2018-09-11T16:16:46.270Z,19.51
2018-09-11T16:19:50.539Z,19.49
2018-09-11T16:22:54.471Z,19.47
2018-09-11T16:25:58.427Z,19.45
2018-09-11T16:29:02.658Z,19.45
2018-09-11T16:32:06.588Z,19.44
2018-09-11T16:35:10.847Z,19.44
2018-09-11T16:38:14.779Z,19.43
2018-09-11T16:41:19.030Z,19.43
2018-09-11T16:44:23.046Z,19.43
2018-09-11T16:47:27.179Z,19.41
2018-09-11T16:50:31.433Z,19.39
2018-09-11T16:53:35.414Z,19.37
2018-09-11T16:56:39.711Z,19.36
2018-09-11T16:59:43.724Z,19.32
2018-09-11T17:02:47.744Z,19.31
2018-09-11T17:05:53.424Z,19.30
2018-09-11T17:08:57.424Z,19.27
2018-09-11T17:12:01.372Z,19.26
2018-09-11T17:15:05.647Z,19.25
2018-09-11T17:18:09.617Z,19.24
2018-09-11T17:21:13.531Z,19.23
2018-09-11T17:24:17.683Z,19.20
2018-09-11T17:27:21.867Z,19.20
2018-09-11T17:30:26.126Z,19.19
2018-09-11T17:33:30.043Z,19.17
2018-09-11T17:36:35.679Z,19.14
2018-09-11T17:39:39.854Z,19.14
2018-09-11T17:42:44.759Z,19.12
2018-09-11T17:45:49.182Z,19.11
2018-09-11T17:48:53.180Z,19.10
2018-09-11T17:51:57.230Z,19.09
2018-09-11T17:55:01.470Z,19.07
2018-09-11T17:58:05.901Z,19.07
2018-09-11T18:01:09.972Z,19.06
2018-09-11T18:04:19.351Z,19.06
2018-09-11T18:07:24.373Z,19.04
2018-09-11T18:10:28.618Z,19.04
2018-09-11T18:13:32.857Z,19.03
2018-09-11T18:16:36.779Z,19.02
2018-09-11T18:19:40.686Z,19.01
2018-09-11T18:22:44.590Z,19.00
2018-09-11T18:25:48.525Z,18.99
2018-09-11T18:28:57.950Z,18.98
2018-09-11T18:32:01.867Z,18.97
2018-09-11T18:35:05.959Z,18.98
2018-09-11T18:38:09.867Z,18.96
2018-09-11T18:41:14.283Z,18.95
2018-09-11T18:44:24.449Z,18.94
2018-09-11T18:47:28.607Z,18.93
2018-09-11T18:50:32.597Z,18.92
2018-09-11T18:53:36.787Z,18.91
2018-09-11T18:56:40.711Z,18.90
2018-09-11T18:59:45.416Z,18.91
2018-09-11T19:02:53.622Z,18.89
2018-09-11T19:05:57.578Z,18.89
2018-09-11T19:16:33.660Z,18.85
2018-09-11T19:20:48.583Z,18.84
2018-09-11T19:24:04.414Z,18.84
2018-09-11T19:27:08.368Z,18.83
2018-09-11T19:30:12.764Z,18.83
2018-09-11T19:33:16.805Z,18.82
2018-09-11T19:36:20.815Z,18.82
2018-09-11T19:39:28.918Z,18.81
2018-09-11T19:42:32.872Z,18.81
2018-09-11T19:45:36.832Z,18.81
2018-09-11T19:48:40.754Z,18.81
2018-09-11T19:51:44.744Z,18.79
2018-09-11T19:54:48.658Z,18.81
2018-09-11T19:57:52.685Z,18.80
2018-09-11T20:00:56.926Z,18.79
2018-09-11T20:04:00.879Z,18.79
2018-09-11T20:07:05.130Z,18.77
2018-09-11T20:10:09.396Z,18.78
2018-09-11T20:13:13.319Z,18.77
2018-09-11T20:16:17.244Z,18.77
2018-09-11T20:19:21.158Z,18.77
2018-09-11T20:22:25.342Z,18.77
2018-09-11T20:25:29.365Z,18.76
2018-09-11T20:28:33.572Z,18.76
2018-09-11T20:31:37.525Z,18.76
2018-09-11T20:34:41.458Z,18.76
2018-09-11T20:37:45.395Z,18.76
2018-09-11T20:40:49.320Z,18.76
2018-09-11T20:43:53.317Z,18.76
2018-09-11T20:46:57.977Z,18.76
2018-09-11T20:50:01.935Z,18.76
2018-09-11T20:53:05.879Z,18.75
2018-09-11T20:56:10.090Z,18.76
2018-09-11T20:59:14.356Z,18.75
2018-09-11T21:02:18.353Z,18.75
2018-09-11T21:05:22.358Z,18.75
2018-09-11T21:08:26.658Z,18.74
2018-09-11T21:11:30.905Z,18.73
2018-09-11T21:14:34.835Z,18.72
2018-09-11T21:17:38.781Z,18.72
2018-09-11T21:20:43.238Z,18.71
2018-09-11T21:23:47.481Z,18.70
2018-09-11T21:26:51.450Z,18.70
2018-09-11T21:29:55.410Z,18.68
2018-09-11T21:32:59.673Z,18.67
2018-09-11T21:36:03.627Z,18.67
2018-09-11T21:39:10.356Z,18.64
2018-09-11T21:42:14.494Z,18.63
2018-09-11T21:45:18.410Z,18.63
2018-09-11T21:48:22.661Z,18.62
2018-09-11T21:51:26.596Z,18.61
2018-09-11T21:54:30.529Z,18.59
2018-09-11T21:57:34.523Z,18.58
2018-09-11T22:00:42.661Z,18.57
2018-09-11T22:03:46.629Z,18.57
2018-09-11T22:06:50.938Z,18.56
2018-09-11T22:09:55.203Z,18.54
2018-09-11T22:12:59.334Z,18.53
2018-09-11T22:16:03.260Z,18.52
2018-09-11T22:19:07.747Z,18.52
2018-09-11T22:22:12.107Z,18.50
2018-09-11T22:25:16.197Z,18.48
2018-09-11T22:28:20.137Z,18.48
2018-09-11T22:31:24.079Z,18.47
2018-09-11T22:34:28.014Z,18.46
2018-09-11T22:37:32.282Z,18.44
2018-09-11T22:40:36.218Z,18.43
2018-09-11T22:43:40.144Z,18.42
2018-09-11T22:46:44.170Z,18.41
2018-09-11T22:49:48.111Z,18.40
2018-09-11T22:52:52.400Z,18.39
2018-09-11T22:55:56.538Z,18.38
2018-09-11T22:59:00.691Z,18.36
2018-09-11T23:02:05.056Z,18.35
2018-09-11T23:05:08.994Z,18.35
2018-09-11T23:08:12.942Z,18.35
2018-09-11T23:11:16.865Z,18.34
2018-09-11T23:14:20.806Z,18.34
2018-09-11T23:17:24.734Z,18.32
2018-09-11T23:20:29.002Z,18.32
2018-09-11T23:23:33.274Z,18.29
2018-09-11T23:26:37.222Z,18.25
2018-09-11T23:29:41.499Z,18.23
2018-09-11T23:32:45.508Z,18.19
2018-09-11T23:35:49.406Z,18.17
2018-09-11T23:38:53.387Z,18.14
2018-09-11T23:41:57.337Z,18.10
2018-09-11T23:45:01.278Z,18.06
2018-09-11T23:48:05.219Z,18.02
2018-09-11T23:51:09.143Z,17.99
2018-09-11T23:54:13.087Z,17.97
2018-09-11T23:57:17.079Z,17.92
